Grassflat, PA (16839)

12:34 AM EDT on August 21, 2014 (GMT -0400)
Clearfield-Lawrence | Change Station
CLOSE
Current Station
Airport
Location: Clearfield,
Elevation: 1516 ft
Nearby Weather Stations

Elev 1516 ft 41.05 °N, 78.41 °W | Updated 33 minutes ago

Thunderstorms and Rain
Thunderstorm Rain Mist
65 °F
Feels Like 65 °F
N
7
Wind Variable Wind from South

Today
High -- | Low -- °F
--% Chance of Precip.
Yesterday
High -- | Low -- °F
Precip. -- in
6:28 AM 8:02 PM
Waning Crescent, 17% visible
Pressure 30.04 in
Visibility 3.0 miles
Clouds Few 2000 ft
Mostly Cloudy 3400 ft
Overcast 8000 ft
Dew Point 64 °F
Humidity 97%
Rainfall 0.00 in
Snow Depth Not available.
UV 0 out of 12
Pollen 8.50 out of 12
Air Quality Not available.
Flu Activity Not available.
SPECI KFIG 210401Z AUTO 19006KT 3SM TSRA BR FEW020 BKN034 OVC080 18/18 A3004 RMK AO2 LTG DSNT NE AND E P0001 T01830178

More Conditions Fewer Conditions

Pressure 30.04 in
Visibility 3.0 miles
Clouds Few 2000 ft
Mostly Cloudy 3400 ft
Overcast 8000 ft
Dew Point 64 °F
Humidity 97%
Rainfall 0.00 in
Snow Depth Not available.
UV 0 out of 12
Pollen 8.50 out of 12
Air Quality Not available.
Flu Activity Not available.
SPECI KFIG 210401Z AUTO 19006KT 3SM TSRA BR FEW020 BKN034 OVC080 18/18 A3004 RMK AO2 LTG DSNT NE AND E P0001 T01830178

More Conditions Fewer Conditions

Nowcast | as of 11:16 PM EDT on August 20, 2014

Widely scattered showers and thunderstorms will be across north central Pennsylvania through 130 am. Most of the activity will be north of a Clearfield...State College... Williamsport line. Some storms will contain torrential downpours. The showers are moving east at 15 mph.

×

10-Day Weather Forecast

Almanac

Astronomy

Aug. 21, 2014 Rise Set
Actual Time 6:28 AM EDT 8:02 PM EDT
Civil Twilight 5:59 AM EDT 8:31 PM EDT
Nautical Twilight 5:24 AM EDT 9:06 PM EDT
Astronomical Twilight 4:46 AM EDT 9:43 PM EDT
Moon 2:56 AM EDT 5:30 PM EDT
Length of Visible Light 14h 32m
Length of Day
13h 34m
Tomorrow will be 2m 31s shorter.
Waning Crescent, 17% of the Moon is Illuminated
Today
Waning Crescent
Aug 25
New
Sep 2
First Quarter
Sep 8
Full
Sep 15
Last Quarter

Yesterday's Extremes

State Highs State Lows

Community

WunderPhotos

Upload Photos

1,745,854 photos uploaded!

Nearby

Snow Depth

Station Depth Elevation
No new snow has been reported.

Earthquake Activity

City Distance Mag. Time & Date
No recent earthquake activity has been reported nearby.
Minimum magnitude displayed is 2.5.

Coastal Water Temperatures

Place Temperature
No Stations Reporting

Nearby Weather Stations